createdAt,value
2022-09-20T00:00:57.157Z,1009.91
2022-09-20T00:01:57.080Z,1009.91
2022-09-20T00:02:57.083Z,1009.95
2022-09-20T00:03:57.051Z,1009.94
2022-09-20T00:04:57.088Z,1009.92
2022-09-20T00:05:57.083Z,1009.90
2022-09-20T00:06:57.010Z,1009.96
2022-09-20T00:07:56.991Z,1010.01
2022-09-20T00:08:56.968Z,1009.94
2022-09-20T00:09:56.969Z,1009.93
2022-09-20T00:10:56.962Z,1009.97
2022-09-20T00:11:56.950Z,1010.00
2022-09-20T00:12:56.933Z,1009.99
2022-09-20T00:13:56.933Z,1009.95
2022-09-20T00:14:56.923Z,1009.97
2022-09-20T00:15:56.899Z,1010.04
2022-09-20T00:16:56.929Z,1010.00
2022-09-20T00:17:56.858Z,1010.01
2022-09-20T00:18:56.879Z,1009.98
2022-09-20T00:19:56.864Z,1010.03
2022-09-20T00:20:56.829Z,1010.10
2022-09-20T00:21:56.809Z,1010.03
2022-09-20T00:22:56.835Z,1010.06
2022-09-20T00:23:56.810Z,1010.10
2022-09-20T00:24:56.802Z,1010.01
2022-09-20T00:25:56.763Z,1009.98
2022-09-20T00:26:56.753Z,1010.05
2022-09-20T00:27:56.741Z,1010.10
2022-09-20T00:28:56.733Z,1010.00
2022-09-20T00:29:56.721Z,1010.10
2022-09-20T00:30:56.699Z,1010.12
2022-09-20T00:31:56.712Z,1010.09
2022-09-20T00:32:56.682Z,1010.02
2022-09-20T00:33:56.672Z,1010.11
2022-09-20T00:34:56.661Z,1009.98
2022-09-20T00:35:56.639Z,1010.06
2022-09-20T00:36:56.631Z,1010.03
2022-09-20T00:37:56.632Z,1010.05
2022-09-20T00:38:56.603Z,1010.04
2022-09-20T00:39:56.685Z,1010.08
2022-09-20T00:40:56.571Z,1010.07
2022-09-20T00:41:56.564Z,1010.09
2022-09-20T00:42:56.551Z,1010.09
2022-09-20T00:43:56.541Z,1010.02
2022-09-20T00:44:56.521Z,1010.09
2022-09-20T00:45:56.579Z,1010.07
2022-09-20T00:46:56.493Z,1010.10
2022-09-20T00:47:56.482Z,1010.11
2022-09-20T00:49:03.489Z,1010.14
2022-09-20T00:49:56.459Z,1010.17
2022-09-20T00:50:56.446Z,1010.18
2022-09-20T00:51:56.445Z,1010.21
2022-09-20T00:52:56.442Z,1010.17
2022-09-20T00:53:56.428Z,1010.14
2022-09-20T00:54:56.433Z,1010.13
2022-09-20T00:55:56.435Z,1010.22
2022-09-20T00:56:56.385Z,1010.18
2022-09-20T00:57:56.399Z,1010.19
2022-09-20T00:58:56.370Z,1010.20
2022-09-20T00:59:56.341Z,1010.23
2022-09-20T01:00:56.374Z,1010.24
2022-09-20T01:01:56.419Z,1010.17
2022-09-20T01:02:56.299Z,1010.22
2022-09-20T01:03:56.447Z,1010.20
2022-09-20T01:04:56.263Z,1010.20
2022-09-20T01:05:56.275Z,1010.23
2022-09-20T01:06:56.240Z,1010.18
2022-09-20T01:07:56.234Z,1010.19
2022-09-20T01:08:56.238Z,1010.22
2022-09-20T01:09:56.209Z,1010.24
2022-09-20T01:10:56.185Z,1010.24
2022-09-20T01:11:56.191Z,1010.22
2022-09-20T01:12:56.143Z,1010.24
2022-09-20T01:13:56.130Z,1010.26
2022-09-20T01:14:56.135Z,1010.24
2022-09-20T01:15:56.146Z,1010.23
2022-09-20T01:16:56.169Z,1010.22
2022-09-20T01:17:56.078Z,1010.24
2022-09-20T01:18:56.075Z,1010.22
2022-09-20T01:19:56.085Z,1010.21
2022-09-20T01:20:56.046Z,1010.24
2022-09-20T01:21:56.035Z,1010.26
2022-09-20T01:22:56.023Z,1010.19
2022-09-20T01:23:56.015Z,1010.19
2022-09-20T01:24:56.013Z,1010.15
2022-09-20T01:25:56.023Z,1010.21
2022-09-20T01:26:55.984Z,1010.21
2022-09-20T01:27:55.974Z,1010.24
2022-09-20T01:28:56.012Z,1010.16
2022-09-20T01:29:55.965Z,1010.19
2022-09-20T01:30:55.934Z,1010.15
2022-09-20T01:31:55.946Z,1010.13
2022-09-20T01:32:55.896Z,1010.17
2022-09-20T01:33:55.886Z,1010.15
2022-09-20T01:34:55.865Z,1010.15
2022-09-20T01:35:55.865Z,1010.21
2022-09-20T01:36:55.863Z,1010.16
2022-09-20T01:37:55.835Z,1010.16
2022-09-20T01:38:55.825Z,1010.15
2022-09-20T01:39:55.938Z,1010.19
2022-09-20T01:40:55.793Z,1010.17
2022-09-20T01:41:55.775Z,1010.21
2022-09-20T01:42:55.762Z,1010.20
2022-09-20T01:43:55.857Z,1010.22
2022-09-20T01:44:55.733Z,1010.18
2022-09-20T01:45:55.757Z,1010.18
2022-09-20T01:46:55.725Z,1010.19
2022-09-20T01:47:55.707Z,1010.19
2022-09-20T01:48:55.695Z,1010.21
2022-09-20T01:49:55.693Z,1010.17
2022-09-20T01:50:55.666Z,1010.21
2022-09-20T01:51:55.665Z,1010.25
2022-09-20T01:52:55.658Z,1010.15
2022-09-20T01:53:55.652Z,1010.24
2022-09-20T01:54:55.616Z,1010.15
2022-09-20T01:55:55.604Z,1010.20
2022-09-20T01:56:55.581Z,1010.24
2022-09-20T01:57:55.614Z,1010.24
2022-09-20T01:59:12.858Z,1010.16
2022-09-20T01:59:56.574Z,1010.21
2022-09-20T02:00:55.619Z,1010.21
2022-09-20T02:01:55.613Z,1010.21
2022-09-20T02:02:55.505Z,1010.19
2022-09-20T02:03:55.483Z,1010.25
2022-09-20T02:04:55.488Z,1010.23
2022-09-20T02:05:55.527Z,1010.24
2022-09-20T02:06:55.455Z,1010.24
2022-09-20T02:07:55.444Z,1010.21
2022-09-20T02:08:55.490Z,1010.26
2022-09-20T02:09:55.446Z,1010.27
2022-09-20T02:10:55.415Z,1010.34
2022-09-20T02:11:55.428Z,1010.32
2022-09-20T02:12:55.373Z,1010.31
2022-09-20T02:13:55.377Z,1010.31
2022-09-20T02:14:55.354Z,1010.30
2022-09-20T02:15:55.330Z,1010.33
2022-09-20T02:16:55.374Z,1010.30
2022-09-20T02:17:55.318Z,1010.34
2022-09-20T02:18:55.314Z,1010.38
2022-09-20T02:19:55.285Z,1010.31
2022-09-20T02:20:55.284Z,1010.38
2022-09-20T02:21:55.264Z,1010.35
2022-09-20T02:22:55.356Z,1010.41
2022-09-20T02:23:55.253Z,1010.41
2022-09-20T02:24:55.226Z,1010.43
2022-09-20T02:25:55.224Z,1010.39
2022-09-20T02:26:55.194Z,1010.39
2022-09-20T02:27:55.184Z,1010.39
2022-09-20T02:28:55.215Z,1010.46
2022-09-20T02:29:55.162Z,1010.45
2022-09-20T02:30:55.161Z,1010.42
2022-09-20T02:31:55.228Z,1010.46
2022-09-20T02:32:55.125Z,1010.45
2022-09-20T02:33:55.132Z,1010.50
2022-09-20T02:34:55.127Z,1010.48
2022-09-20T02:35:55.094Z,1010.49
2022-09-20T02:36:55.064Z,1010.50
2022-09-20T02:37:55.055Z,1010.51
2022-09-20T02:38:55.098Z,1010.53
2022-09-20T02:39:55.043Z,1010.50
2022-09-20T02:40:55.016Z,1010.48
2022-09-20T02:41:55.005Z,1010.54
2022-09-20T02:42:55.023Z,1010.56
2022-09-20T02:43:54.975Z,1010.51
2022-09-20T02:44:55.056Z,1010.53
2022-09-20T02:45:55.000Z,1010.48
2022-09-20T02:46:54.937Z,1010.50
2022-09-20T02:47:54.922Z,1010.50
2022-09-20T02:48:54.917Z,1010.57
2022-09-20T02:49:54.946Z,1010.55
2022-09-20T02:50:54.901Z,1010.54
2022-09-20T02:51:54.914Z,1010.52
2022-09-20T02:52:54.863Z,1010.59
2022-09-20T02:53:54.893Z,1010.55
2022-09-20T02:54:54.839Z,1010.57
2022-09-20T02:55:54.819Z,1010.60
2022-09-20T02:56:54.824Z,1010.59
2022-09-20T02:57:54.795Z,1010.61
2022-09-20T02:58:54.775Z,1010.59
2022-09-20T02:59:54.797Z,1010.63
2022-09-20T03:00:54.864Z,1010.58
2022-09-20T03:01:54.844Z,1010.63
2022-09-20T03:02:54.787Z,1010.60
2022-09-20T03:03:54.717Z,1010.65
2022-09-20T03:04:54.726Z,1010.60
2022-09-20T03:05:54.698Z,1010.66
2022-09-20T03:06:54.707Z,1010.63
2022-09-20T03:07:54.710Z,1010.62
2022-09-20T03:08:54.770Z,1010.65
2022-09-20T03:09:54.633Z,1010.64
2022-09-20T03:10:54.705Z,1010.68
2022-09-20T03:11:54.616Z,1010.68
2022-09-20T03:12:54.627Z,1010.70
2022-09-20T03:13:54.620Z,1010.65
2022-09-20T03:14:54.585Z,1010.68
2022-09-20T03:15:54.556Z,1010.73
2022-09-20T03:16:54.651Z,1010.70
2022-09-20T03:17:54.549Z,1010.65
2022-09-20T03:18:54.538Z,1010.73
2022-09-20T03:19:54.587Z,1010.75
2022-09-20T03:20:54.496Z,1010.72
2022-09-20T03:21:54.500Z,1010.74
2022-09-20T03:22:54.485Z,1010.71
2022-09-20T03:23:54.489Z,1010.74
2022-09-20T03:25:09.698Z,1010.69
2022-09-20T03:25:54.458Z,1010.72
2022-09-20T03:26:54.443Z,1010.74
2022-09-20T03:27:54.418Z,1010.75
2022-09-20T03:28:54.423Z,1010.74
2022-09-20T03:29:54.398Z,1010.74
2022-09-20T03:30:54.380Z,1010.75
2022-09-20T03:31:54.462Z,1010.76
2022-09-20T03:32:54.356Z,1010.76
2022-09-20T03:33:54.326Z,1010.76
2022-09-20T03:34:54.325Z,1010.74
2022-09-20T03:35:54.309Z,1010.74
2022-09-20T03:36:54.295Z,1010.74
2022-09-20T03:37:54.307Z,1010.76
2022-09-20T03:38:54.345Z,1010.75
2022-09-20T03:39:54.255Z,1010.76
2022-09-20T03:40:54.300Z,1010.75
2022-09-20T03:41:54.257Z,1010.76
2022-09-20T03:42:54.245Z,1010.79
2022-09-20T03:43:54.238Z,1010.75
2022-09-20T03:44:54.206Z,1010.73
2022-09-20T03:45:54.298Z,1010.71
2022-09-20T03:46:54.200Z,1010.79
2022-09-20T03:47:54.184Z,1010.79
2022-09-20T03:48:54.145Z,1010.81
2022-09-20T03:49:54.133Z,1010.79
2022-09-20T03:50:54.185Z,1010.77
2022-09-20T03:51:54.106Z,1010.76
2022-09-20T03:52:54.095Z,1010.81
2022-09-20T03:53:54.095Z,1010.79
2022-09-20T03:54:54.097Z,1010.82
2022-09-20T03:55:54.084Z,1010.77
2022-09-20T03:56:54.065Z,1010.80
2022-09-20T03:57:54.030Z,1010.82
2022-09-20T03:58:54.025Z,1010.86
2022-09-20T03:59:54.026Z,1010.82
2022-09-20T04:00:54.022Z,1010.84
2022-09-20T04:01:53.995Z,1010.88
2022-09-20T04:02:53.973Z,1010.83
2022-09-20T04:03:53.964Z,1010.84
2022-09-20T04:04:53.938Z,1010.84
2022-09-20T04:05:53.935Z,1010.83
2022-09-20T04:06:53.974Z,1010.84
2022-09-20T04:07:53.923Z,1010.81
2022-09-20T04:08:53.896Z,1010.83
2022-09-20T04:09:53.896Z,1010.85
2022-09-20T04:10:53.855Z,1010.88
2022-09-20T04:11:53.896Z,1010.84
2022-09-20T04:12:53.857Z,1010.93
2022-09-20T04:13:53.834Z,1010.91
2022-09-20T04:14:53.817Z,1010.94
2022-09-20T04:15:53.797Z,1010.88
2022-09-20T04:16:53.871Z,1010.96
2022-09-20T04:17:53.793Z,1010.94
2022-09-20T04:18:53.780Z,1010.95
2022-09-20T04:19:53.747Z,1010.97
2022-09-20T04:20:53.744Z,1010.99
2022-09-20T04:21:53.754Z,1010.95
2022-09-20T04:22:53.713Z,1010.95
2022-09-20T04:23:53.793Z,1010.94
2022-09-20T04:24:53.713Z,1010.93
2022-09-20T04:25:53.690Z,1010.98
2022-09-20T04:26:53.688Z,1010.92
2022-09-20T04:27:53.647Z,1010.99
2022-09-20T04:28:53.636Z,1010.98
2022-09-20T04:29:53.637Z,1010.94
2022-09-20T04:30:53.627Z,1010.99
2022-09-20T04:31:54.357Z,1010.94
2022-09-20T04:32:53.579Z,1010.97
2022-09-20T04:33:53.576Z,1010.98
2022-09-20T04:34:53.547Z,1010.92
2022-09-20T04:35:53.559Z,1010.94
2022-09-20T04:36:53.559Z,1010.96
2022-09-20T04:37:53.528Z,1010.96
2022-09-20T04:38:53.530Z,1010.98
2022-09-20T04:39:53.518Z,1011.01
2022-09-20T04:40:53.516Z,1010.99
2022-09-20T04:41:53.469Z,1011.02
2022-09-20T04:42:53.468Z,1011.04
2022-09-20T04:43:53.474Z,1011.03
2022-09-20T04:44:53.506Z,1010.98
2022-09-20T04:45:53.458Z,1011.00
2022-09-20T04:46:56.024Z,1011.04
2022-09-20T04:47:53.467Z,1011.04
2022-09-20T04:48:53.486Z,1011.03
2022-09-20T04:49:53.390Z,1011.05
2022-09-20T04:50:53.417Z,1011.07
2022-09-20T04:51:53.408Z,1011.09
2022-09-20T04:52:53.350Z,1011.06
2022-09-20T04:53:53.351Z,1011.06
2022-09-20T04:54:53.300Z,1011.04
2022-09-20T04:55:53.297Z,1011.09
2022-09-20T04:56:53.287Z,1011.09
2022-09-20T04:57:53.277Z,1011.09
2022-09-20T04:58:53.258Z,1011.08
2022-09-20T04:59:53.236Z,1011.07
2022-09-20T05:00:53.259Z,1011.08
2022-09-20T05:01:53.257Z,1011.12
2022-09-20T05:02:53.206Z,1011.09
2022-09-20T05:03:53.215Z,1011.12
2022-09-20T05:04:53.187Z,1011.12
2022-09-20T05:05:53.159Z,1011.11
2022-09-20T05:06:53.166Z,1011.12
2022-09-20T05:07:53.134Z,1011.12
2022-09-20T05:08:57.986Z,1011.16
2022-09-20T05:09:54.131Z,1011.15
2022-09-20T05:10:53.107Z,1011.18
2022-09-20T05:11:53.082Z,1011.16
2022-09-20T05:12:53.068Z,1011.23
2022-09-20T05:13:53.168Z,1011.17
2022-09-20T05:14:53.058Z,1011.24
2022-09-20T05:15:53.072Z,1011.25
2022-09-20T05:16:53.059Z,1011.24
2022-09-20T05:17:52.996Z,1011.28
2022-09-20T05:18:53.093Z,1011.29
2022-09-20T05:19:53.005Z,1011.29
2022-09-20T05:20:53.008Z,1011.32
2022-09-20T05:21:52.959Z,1011.24
2022-09-20T05:22:52.945Z,1011.31
2022-09-20T05:23:52.930Z,1011.35
2022-09-20T05:24:52.918Z,1011.32
2022-09-20T05:25:52.915Z,1011.36
2022-09-20T05:26:52.897Z,1011.36
2022-09-20T05:27:52.909Z,1011.38
2022-09-20T05:28:52.869Z,1011.42
2022-09-20T05:29:52.888Z,1011.42
2022-09-20T05:30:52.840Z,1011.40
2022-09-20T05:31:52.884Z,1011.42
2022-09-20T05:32:52.818Z,1011.43
2022-09-20T05:33:52.824Z,1011.48
2022-09-20T05:34:52.787Z,1011.47
2022-09-20T05:35:52.766Z,1011.51
2022-09-20T05:36:52.825Z,1011.51
2022-09-20T05:37:52.748Z,1011.53
2022-09-20T05:38:52.856Z,1011.47
2022-09-20T05:39:52.730Z,1011.55
2022-09-20T05:40:52.709Z,1011.48
2022-09-20T05:41:52.719Z,1011.48
2022-09-20T05:42:52.690Z,1011.44
2022-09-20T05:43:52.734Z,1011.54
2022-09-20T05:44:52.659Z,1011.55
2022-09-20T05:45:52.736Z,1011.55
2022-09-20T05:46:52.641Z,1011.56
2022-09-20T05:47:52.672Z,1011.58
2022-09-20T05:48:52.628Z,1011.59
2022-09-20T05:49:52.588Z,1011.58
2022-09-20T05:50:55.447Z,1011.56
2022-09-20T05:51:52.567Z,1011.62
2022-09-20T05:52:52.539Z,1011.61
2022-09-20T05:53:52.567Z,1011.62
2022-09-20T05:54:52.519Z,1011.61
2022-09-20T05:55:52.516Z,1011.69
2022-09-20T05:56:52.500Z,1011.66
2022-09-20T05:57:52.500Z,1011.63
2022-09-20T05:58:52.489Z,1011.71
2022-09-20T05:59:52.469Z,1011.61
2022-09-20T06:00:52.485Z,1011.65
2022-09-20T06:01:52.439Z,1011.65
2022-09-20T06:02:52.420Z,1011.68
2022-09-20T06:03:52.429Z,1011.65
2022-09-20T06:04:52.412Z,1011.65
2022-09-20T06:05:52.389Z,1011.73
2022-09-20T06:06:52.377Z,1011.68
2022-09-20T06:07:52.367Z,1011.73
2022-09-20T06:08:52.373Z,1011.73
2022-09-20T06:09:52.338Z,1011.72
2022-09-20T06:10:52.330Z,1011.79
2022-09-20T06:11:52.326Z,1011.77
2022-09-20T06:12:52.292Z,1011.76
2022-09-20T06:13:52.287Z,1011.79
2022-09-20T06:14:52.269Z,1011.81
2022-09-20T06:15:52.355Z,1011.78
2022-09-20T06:16:52.350Z,1011.83
2022-09-20T06:17:52.258Z,1011.79
2022-09-20T06:18:52.210Z,1011.78
2022-09-20T06:19:52.210Z,1011.75
2022-09-20T06:20:52.189Z,1011.85
2022-09-20T06:21:52.198Z,1011.79
2022-09-20T06:22:52.160Z,1011.80
2022-09-20T06:23:52.234Z,1011.86
2022-09-20T06:24:52.138Z,1011.90
2022-09-20T06:25:52.129Z,1011.85
2022-09-20T06:26:52.118Z,1011.89
2022-09-20T06:27:52.110Z,1011.85
2022-09-20T06:28:55.255Z,1011.83
2022-09-20T06:29:53.081Z,1011.90
2022-09-20T06:30:52.136Z,1011.85
2022-09-20T06:31:52.060Z,1011.85
2022-09-20T06:32:52.079Z,1011.83
2022-09-20T06:33:52.029Z,1011.86
2022-09-20T06:34:52.132Z,1011.85
2022-09-20T06:35:54.729Z,1011.87
2022-09-20T06:36:52.981Z,1011.87
2022-09-20T06:37:52.042Z,1011.85
2022-09-20T06:38:51.976Z,1011.90
2022-09-20T06:39:51.952Z,1011.92
2022-09-20T06:40:51.940Z,1011.91
2022-09-20T06:41:51.921Z,1011.94
2022-09-20T06:42:51.922Z,1011.94
2022-09-20T06:43:51.911Z,1011.92
2022-09-20T06:44:51.883Z,1011.87
2022-09-20T06:45:51.938Z,1011.85
2022-09-20T06:46:51.841Z,1011.93
2022-09-20T06:47:51.839Z,1011.85
2022-09-20T06:48:51.847Z,1011.85
2022-09-20T06:49:58.809Z,1011.85
2022-09-20T06:50:51.799Z,1011.93
2022-09-20T06:51:51.781Z,1011.89
2022-09-20T06:52:51.771Z,1011.99
2022-09-20T06:53:51.837Z,1011.99
2022-09-20T06:54:51.741Z,1011.96
2022-09-20T06:55:51.731Z,1011.94
2022-09-20T06:56:51.712Z,1011.94
2022-09-20T06:57:51.731Z,1011.87
2022-09-20T06:58:51.695Z,1011.92
2022-09-20T06:59:51.710Z,1011.89
2022-09-20T07:00:51.663Z,1011.94
2022-09-20T07:01:51.704Z,1011.89
2022-09-20T07:02:51.630Z,1011.95
2022-09-20T07:03:51.630Z,1011.90
2022-09-20T07:04:51.611Z,1011.93
2022-09-20T07:05:51.599Z,1011.96
2022-09-20T07:06:51.585Z,1012.04
2022-09-20T07:07:51.572Z,1012.00
2022-09-20T07:08:51.602Z,1012.05
2022-09-20T07:09:51.551Z,1012.08
2022-09-20T07:10:51.532Z,1011.98
2022-09-20T07:11:51.522Z,1012.01
2022-09-20T07:12:51.512Z,1012.04
2022-09-20T07:13:51.524Z,1012.11
2022-09-20T07:14:51.481Z,1012.10
2022-09-20T07:15:51.466Z,1012.10
2022-09-20T07:16:51.470Z,1012.07
2022-09-20T07:17:51.441Z,1012.12
2022-09-20T07:18:51.431Z,1012.12
2022-09-20T07:19:51.439Z,1012.13
2022-09-20T07:20:51.402Z,1012.08
2022-09-20T07:21:51.391Z,1012.12
2022-09-20T07:22:51.392Z,1012.12
2022-09-20T07:23:51.440Z,1012.12
2022-09-20T07:24:51.375Z,1012.10
2022-09-20T07:25:51.375Z,1012.13
2022-09-20T07:26:51.344Z,1012.14
2022-09-20T07:27:51.353Z,1012.17
2022-09-20T07:28:51.303Z,1012.16
2022-09-20T07:29:51.313Z,1012.24
2022-09-20T07:30:51.296Z,1012.17
2022-09-20T07:31:51.320Z,1012.19
2022-09-20T07:32:51.253Z,1012.14
2022-09-20T07:33:51.242Z,1012.19
2022-09-20T07:34:51.232Z,1012.21
2022-09-20T07:35:51.222Z,1012.23
2022-09-20T07:36:51.254Z,1012.20
2022-09-20T07:37:51.194Z,1012.28
2022-09-20T07:38:51.220Z,1012.24
2022-09-20T07:39:51.185Z,1012.32
2022-09-20T07:40:51.162Z,1012.24
2022-09-20T07:41:51.165Z,1012.24
2022-09-20T07:42:56.012Z,1012.32
2022-09-20T07:43:52.123Z,1012.33
2022-09-20T07:44:51.123Z,1012.30
2022-09-20T07:45:51.172Z,1012.37
2022-09-20T07:46:51.088Z,1012.34
2022-09-20T07:47:51.073Z,1012.36
2022-09-20T07:48:51.055Z,1012.39
2022-09-20T07:49:51.053Z,1012.39
2022-09-20T07:50:51.036Z,1012.37
2022-09-20T07:51:51.016Z,1012.40
2022-09-20T07:52:51.011Z,1012.48
2022-09-20T07:53:51.024Z,1012.44
2022-09-20T07:54:50.984Z,1012.38
2022-09-20T07:55:50.981Z,1012.45
2022-09-20T07:56:50.964Z,1012.43
2022-09-20T07:57:50.947Z,1012.46
2022-09-20T07:58:52.547Z,1012.48
2022-09-20T07:59:50.916Z,1012.52
2022-09-20T08:00:50.966Z,1012.47
2022-09-20T08:01:50.995Z,1012.48
2022-09-20T08:02:50.906Z,1012.62
2022-09-20T08:03:50.915Z,1012.54
2022-09-20T08:04:50.856Z,1012.49
2022-09-20T08:05:50.918Z,1012.50
2022-09-20T08:06:50.846Z,1012.49
2022-09-20T08:07:50.824Z,1012.52
2022-09-20T08:08:50.925Z,1012.45
2022-09-20T08:09:50.817Z,1012.52
2022-09-20T08:10:50.774Z,1012.50
2022-09-20T08:11:50.775Z,1012.49
2022-09-20T08:14:08.367Z,1012.43
2022-09-20T08:14:51.725Z,1012.44
2022-09-20T08:15:50.817Z,1012.46
2022-09-20T08:16:50.764Z,1012.48
2022-09-20T08:17:50.684Z,1012.51
2022-09-20T08:18:50.705Z,1012.47
2022-09-20T08:19:50.693Z,1012.48
2022-09-20T08:20:50.657Z,1012.49
2022-09-20T08:21:50.668Z,1012.53
2022-09-20T08:23:12.569Z,1012.48
2022-09-20T08:23:51.650Z,1012.51
2022-09-20T08:24:50.608Z,1012.54
2022-09-20T08:25:50.598Z,1012.53
2022-09-20T08:26:50.565Z,1012.55
2022-09-20T08:27:50.565Z,1012.62
2022-09-20T08:28:50.545Z,1012.60
2022-09-20T08:29:50.538Z,1012.56
2022-09-20T08:30:50.513Z,1012.55
2022-09-20T08:31:50.528Z,1012.64
2022-09-20T08:32:50.547Z,1012.62
2022-09-20T08:33:50.478Z,1012.63
2022-09-20T08:34:50.478Z,1012.58
2022-09-20T08:35:50.471Z,1012.67
2022-09-20T08:36:50.448Z,1012.51
2022-09-20T08:37:50.860Z,1012.54
2022-09-20T08:39:59.153Z,1012.50
2022-09-20T08:40:51.388Z,1012.54
2022-09-20T08:41:50.382Z,1012.54
2022-09-20T08:42:50.376Z,1012.57
2022-09-20T08:43:50.349Z,1012.50
2022-09-20T08:44:57.781Z,1012.56
2022-09-20T08:45:51.358Z,1012.65
2022-09-20T08:46:50.319Z,1012.58
2022-09-20T08:47:50.312Z,1012.59
2022-09-20T08:48:50.280Z,1012.58
2022-09-20T08:49:56.392Z,1012.64
2022-09-20T08:50:51.250Z,1012.64
2022-09-20T08:51:50.244Z,1012.63
2022-09-20T08:52:50.246Z,1012.58
2022-09-20T08:53:50.218Z,1012.61
2022-09-20T08:54:50.198Z,1012.62
2022-09-20T08:55:50.188Z,1012.65
2022-09-20T08:56:50.176Z,1012.67
2022-09-20T08:57:50.186Z,1012.66
2022-09-20T08:58:50.160Z,1012.57
2022-09-20T08:59:50.143Z,1012.59
2022-09-20T09:00:50.154Z,1012.70
2022-09-20T09:01:50.109Z,1012.66
2022-09-20T09:02:50.140Z,1012.70
2022-09-20T09:03:50.091Z,1012.66
2022-09-20T09:04:50.073Z,1012.64
2022-09-20T09:05:50.062Z,1012.68
2022-09-20T09:06:50.070Z,1012.66
2022-09-20T09:07:50.041Z,1012.66
2022-09-20T09:08:50.018Z,1012.66
2022-09-20T09:09:50.008Z,1012.65
2022-09-20T09:10:49.979Z,1012.69
2022-09-20T09:11:49.977Z,1012.71
2022-09-20T09:12:49.972Z,1012.68
2022-09-20T09:13:49.961Z,1012.76
2022-09-20T09:14:49.949Z,1012.80
2022-09-20T09:15:49.972Z,1012.73
2022-09-20T09:16:49.997Z,1012.73
2022-09-20T09:17:49.911Z,1012.74
2022-09-20T09:18:49.909Z,1012.71
2022-09-20T09:19:49.906Z,1012.81
2022-09-20T09:20:49.869Z,1012.72
2022-09-20T09:21:49.898Z,1012.79
2022-09-20T09:22:49.830Z,1012.83
2022-09-20T09:23:49.821Z,1012.81
2022-09-20T09:24:49.811Z,1012.81
2022-09-20T09:25:49.794Z,1012.84
2022-09-20T09:26:49.771Z,1012.76
2022-09-20T09:27:49.771Z,1012.82
2022-09-20T09:28:49.760Z,1012.72
2022-09-20T09:29:49.740Z,1012.79
2022-09-20T09:30:49.745Z,1012.80
2022-09-20T09:31:49.774Z,1012.75
2022-09-20T09:32:49.714Z,1012.84
2022-09-20T09:33:49.711Z,1012.81
2022-09-20T09:34:49.743Z,1012.71
2022-09-20T09:35:49.681Z,1012.74
2022-09-20T09:36:49.662Z,1012.71
2022-09-20T09:37:49.653Z,1012.76
2022-09-20T09:38:49.630Z,1012.78
2022-09-20T09:39:49.630Z,1012.74
2022-09-20T09:40:49.601Z,1012.70
2022-09-20T09:41:49.591Z,1012.78
2022-09-20T09:42:49.624Z,1012.75
2022-09-20T09:43:49.565Z,1012.84
2022-09-20T09:44:49.562Z,1012.68
2022-09-20T09:45:49.575Z,1012.70
2022-09-20T09:46:49.522Z,1012.67
2022-09-20T09:47:49.505Z,1012.72
2022-09-20T09:48:49.505Z,1012.73
2022-09-20T09:49:49.482Z,1012.74
2022-09-20T09:50:49.480Z,1012.75
2022-09-20T09:51:49.474Z,1012.77
2022-09-20T09:52:49.446Z,1012.75
2022-09-20T09:53:49.443Z,1012.76
2022-09-20T09:54:49.425Z,1012.66
2022-09-20T09:55:49.415Z,1012.70
2022-09-20T09:56:49.405Z,1012.64
2022-09-20T09:57:49.405Z,1012.61
2022-09-20T09:58:49.375Z,1012.69
2022-09-20T09:59:49.378Z,1012.67
2022-09-20T10:00:49.371Z,1012.73
2022-09-20T10:01:49.451Z,1012.71
2022-09-20T10:02:49.352Z,1012.65
2022-09-20T10:03:49.313Z,1012.63
2022-09-20T10:04:49.294Z,1012.61
2022-09-20T10:05:49.274Z,1012.65
2022-09-20T10:06:52.251Z,1012.60
2022-09-20T10:07:49.316Z,1012.65
2022-09-20T10:08:49.237Z,1012.62
2022-09-20T10:09:49.223Z,1012.60
2022-09-20T10:10:49.237Z,1012.52
2022-09-20T10:11:49.197Z,1012.50
2022-09-20T10:12:49.195Z,1012.48
2022-09-20T10:13:49.189Z,1012.60
2022-09-20T10:14:49.167Z,1012.54
2022-09-20T10:15:49.147Z,1012.60
2022-09-20T10:16:49.159Z,1012.58
2022-09-20T10:17:49.139Z,1012.63
2022-09-20T10:18:49.113Z,1012.57
2022-09-20T10:19:49.231Z,1012.53
2022-09-20T10:20:49.086Z,1012.55
2022-09-20T10:21:49.082Z,1012.46
2022-09-20T10:23:14.747Z,1012.48
2022-09-20T10:24:03.016Z,1012.51
2022-09-20T10:24:51.640Z,1012.45
2022-09-20T10:25:49.026Z,1012.43
2022-09-20T10:26:49.087Z,1012.46
2022-09-20T10:27:49.020Z,1012.46
2022-09-20T10:28:49.017Z,1012.45
2022-09-20T10:29:48.987Z,1012.46
2022-09-20T10:30:49.007Z,1012.48
2022-09-20T10:31:48.955Z,1012.55
2022-09-20T10:32:48.930Z,1012.53
2022-09-20T10:33:48.918Z,1012.65
2022-09-20T10:34:48.900Z,1012.58
2022-09-20T10:35:48.948Z,1012.63
2022-09-20T10:36:48.884Z,1012.69
2022-09-20T10:37:49.585Z,1012.75
2022-09-20T10:38:48.858Z,1012.87
2022-09-20T10:39:48.840Z,1012.85
2022-09-20T10:40:48.829Z,1012.86
2022-09-20T10:41:48.817Z,1012.98
2022-09-20T10:42:48.804Z,1012.97
2022-09-20T10:43:48.783Z,1013.09
2022-09-20T10:44:48.771Z,1013.10
2022-09-20T10:46:27.890Z,1013.08
2022-09-20T10:46:49.828Z,1013.05
2022-09-20T10:47:48.729Z,1013.08
2022-09-20T10:48:48.717Z,1013.19
2022-09-20T10:49:50.895Z,1013.21
2022-09-20T10:50:48.730Z,1013.26
2022-09-20T10:51:48.691Z,1013.29
2022-09-20T10:52:48.692Z,1013.42
2022-09-20T10:53:48.662Z,1013.32
2022-09-20T10:54:48.652Z,1013.29
2022-09-20T10:55:48.632Z,1013.23
2022-09-20T10:56:48.638Z,1013.15
2022-09-20T10:57:48.603Z,1013.17
2022-09-20T10:58:48.610Z,1013.16
2022-09-20T10:59:48.571Z,1013.12
2022-09-20T11:00:48.644Z,1013.14
2022-09-20T11:01:48.590Z,1013.16
2022-09-20T11:02:48.576Z,1013.17
2022-09-20T11:03:48.521Z,1013.09
2022-09-20T11:04:48.517Z,1013.11
2022-09-20T11:05:48.491Z,1013.08
2022-09-20T11:06:48.502Z,1013.09
2022-09-20T11:07:48.475Z,1013.12
2022-09-20T11:08:48.480Z,1013.07
2022-09-20T11:09:48.452Z,1013.07
2022-09-20T11:10:48.450Z,1013.09
2022-09-20T11:11:48.432Z,1013.03
2022-09-20T11:12:48.430Z,1013.04
2022-09-20T11:13:48.432Z,1013.11
2022-09-20T11:14:48.528Z,1013.11
2022-09-20T11:15:48.437Z,1013.14
2022-09-20T11:16:48.617Z,1013.17
2022-09-20T11:17:48.411Z,1013.15
2022-09-20T11:18:48.442Z,1013.20
2022-09-20T11:19:48.342Z,1013.23
2022-09-20T11:20:48.310Z,1013.34
2022-09-20T11:21:48.355Z,1013.45
2022-09-20T11:22:48.392Z,1013.48
2022-09-20T11:23:48.273Z,1013.53
2022-09-20T11:24:48.264Z,1013.52
2022-09-20T11:25:48.243Z,1013.49
2022-09-20T11:26:48.264Z,1013.58
2022-09-20T11:27:48.225Z,1013.57
2022-09-20T11:28:48.203Z,1013.64
2022-09-20T11:29:48.193Z,1013.63
2022-09-20T11:30:48.181Z,1013.61
2022-09-20T11:31:48.232Z,1013.64
2022-09-20T11:32:48.151Z,1013.64
2022-09-20T11:33:48.131Z,1013.65
2022-09-20T11:34:48.134Z,1013.63
2022-09-20T11:35:48.110Z,1013.60
2022-09-20T11:36:48.102Z,1013.60
2022-09-20T11:37:48.143Z,1013.67
2022-09-20T11:38:52.867Z,1013.68
2022-09-20T11:39:49.063Z,1013.69
2022-09-20T11:40:48.073Z,1013.71
2022-09-20T11:41:48.054Z,1013.74
2022-09-20T11:42:48.023Z,1013.72
2022-09-20T11:43:48.026Z,1013.74
2022-09-20T11:44:48.002Z,1013.79
2022-09-20T11:45:48.032Z,1013.73
2022-09-20T11:46:47.972Z,1013.72
2022-09-20T11:47:54.863Z,1013.72
2022-09-20T11:48:48.969Z,1013.80
2022-09-20T11:49:47.942Z,1013.77
2022-09-20T11:50:47.945Z,1013.78
2022-09-20T11:51:47.904Z,1013.77
2022-09-20T11:52:47.895Z,1013.82
2022-09-20T11:53:47.884Z,1013.78
2022-09-20T11:54:47.883Z,1013.80
2022-09-20T11:55:47.864Z,1013.74
2022-09-20T11:56:47.891Z,1013.73
2022-09-20T11:57:47.834Z,1013.74
2022-09-20T11:58:47.832Z,1013.71
2022-09-20T11:59:47.802Z,1013.69
2022-09-20T12:00:47.843Z,1013.71
2022-09-20T12:01:47.806Z,1013.69
2022-09-20T12:02:47.898Z,1013.71
2022-09-20T12:03:47.765Z,1013.69
2022-09-20T12:04:47.755Z,1013.72
2022-09-20T12:05:47.735Z,1013.70
2022-09-20T12:06:47.734Z,1013.70
2022-09-20T12:07:47.705Z,1013.69